sensor_id;sensor_type;location;lat;lon;timestamp;P1;durP1;ratioP1;P2;durP2;ratioP2
8159;SDS011;27404;52.398;9.646;2023-06-10T00:02:04;6.90;;;2.63;;
8159;SDS011;27404;52.398;9.646;2023-06-10T00:04:29;9.13;;;4.87;;
8159;SDS011;27404;52.398;9.646;2023-06-10T00:06:55;9.87;;;3.00;;
8159;SDS011;27404;52.398;9.646;2023-06-10T00:09:20;9.30;;;3.10;;
8159;SDS011;27404;52.398;9.646;2023-06-10T00:11:46;3.80;;;2.57;;
8159;SDS011;27404;52.398;9.646;2023-06-10T00:14:12;5.57;;;2.67;;
8159;SDS011;27404;52.398;9.646;2023-06-10T00:16:38;6.20;;;2.93;;
8159;SDS011;27404;52.398;9.646;2023-06-10T00:19:04;3.60;;;2.70;;
8159;SDS011;27404;52.398;9.646;2023-06-10T00:21:31;6.23;;;3.00;;
8159;SDS011;27404;52.398;9.646;2023-06-10T00:24:05;6.73;;;2.97;;
8159;SDS011;27404;52.398;9.646;2023-06-10T00:26:32;7.17;;;2.97;;
8159;SDS011;27404;52.398;9.646;2023-06-10T00:28:58;9.97;;;3.30;;
8159;SDS011;27404;52.398;9.646;2023-06-10T00:31:24;4.67;;;3.20;;
8159;SDS011;27404;52.398;9.646;2023-06-10T00:33:51;6.43;;;3.53;;
8159;SDS011;27404;52.398;9.646;2023-06-10T00:36:17;6.90;;;2.80;;
8159;SDS011;27404;52.398;9.646;2023-06-10T00:38:42;10.00;;;3.50;;
8159;SDS011;27404;52.398;9.646;2023-06-10T00:41:08;5.93;;;3.30;;
8159;SDS011;27404;52.398;9.646;2023-06-10T00:43:33;4.03;;;3.00;;
8159;SDS011;27404;52.398;9.646;2023-06-10T00:45:59;9.60;;;3.37;;
8159;SDS011;27404;52.398;9.646;2023-06-10T00:48:25;10.20;;;3.40;;
8159;SDS011;27404;52.398;9.646;2023-06-10T00:50:51;6.33;;;3.80;;
8159;SDS011;27404;52.398;9.646;2023-06-10T00:53:17;6.47;;;3.43;;
8159;SDS011;27404;52.398;9.646;2023-06-10T00:55:43;6.03;;;3.03;;
8159;SDS011;27404;52.398;9.646;2023-06-10T00:58:08;6.03;;;3.40;;
8159;SDS011;27404;52.398;9.646;2023-06-10T01:00:35;9.90;;;3.43;;
8159;SDS011;27404;52.398;9.646;2023-06-10T01:03:01;6.47;;;3.23;;
8159;SDS011;27404;52.398;9.646;2023-06-10T01:05:26;6.17;;;3.37;;
8159;SDS011;27404;52.398;9.646;2023-06-10T01:07:56;10.43;;;3.50;;
8159;SDS011;27404;52.398;9.646;2023-06-10T01:13:11;6.43;;;3.00;;
8159;SDS011;27404;52.398;9.646;2023-06-10T01:15:39;7.20;;;3.60;;
8159;SDS011;27404;52.398;9.646;2023-06-10T01:18:08;7.90;;;3.37;;
8159;SDS011;27404;52.398;9.646;2023-06-10T01:20:39;6.37;;;3.83;;
8159;SDS011;27404;52.398;9.646;2023-06-10T01:23:06;9.33;;;3.00;;
8159;SDS011;27404;52.398;9.646;2023-06-10T01:25:32;8.77;;;3.40;;
8159;SDS011;27404;52.398;9.646;2023-06-10T01:28:04;5.87;;;3.23;;
8159;SDS011;27404;52.398;9.646;2023-06-10T01:33:45;5.07;;;3.40;;
8159;SDS011;27404;52.398;9.646;2023-06-10T01:36:12;4.90;;;3.30;;
8159;SDS011;27404;52.398;9.646;2023-06-10T01:38:42;7.00;;;3.30;;
8159;SDS011;27404;52.398;9.646;2023-06-10T01:41:09;7.93;;;3.83;;
8159;SDS011;27404;52.398;9.646;2023-06-10T01:43:37;8.20;;;3.80;;
8159;SDS011;27404;52.398;9.646;2023-06-10T01:46:03;6.47;;;3.77;;
8159;SDS011;27404;52.398;9.646;2023-06-10T01:48:29;7.10;;;3.73;;
8159;SDS011;27404;52.398;9.646;2023-06-10T01:50:55;7.70;;;4.43;;
8159;SDS011;27404;52.398;9.646;2023-06-10T01:53:21;9.80;;;4.33;;
8159;SDS011;27404;52.398;9.646;2023-06-10T01:55:47;6.07;;;3.90;;
8159;SDS011;27404;52.398;9.646;2023-06-10T01:58:13;6.60;;;3.60;;
8159;SDS011;27404;52.398;9.646;2023-06-10T02:00:38;6.50;;;3.77;;
8159;SDS011;27404;52.398;9.646;2023-06-10T02:03:04;9.10;;;4.07;;
8159;SDS011;27404;52.398;9.646;2023-06-10T02:05:29;7.87;;;4.13;;
8159;SDS011;27404;52.398;9.646;2023-06-10T02:07:55;7.50;;;4.03;;
8159;SDS011;27404;52.398;9.646;2023-06-10T02:10:20;8.63;;;4.67;;
8159;SDS011;27404;52.398;9.646;2023-06-10T02:12:46;7.87;;;4.37;;
8159;SDS011;27404;52.398;9.646;2023-06-10T02:15:11;6.57;;;3.97;;
8159;SDS011;27404;52.398;9.646;2023-06-10T02:17:37;10.87;;;4.80;;
8159;SDS011;27404;52.398;9.646;2023-06-10T02:20:03;10.97;;;4.30;;
8159;SDS011;27404;52.398;9.646;2023-06-10T02:22:31;9.90;;;4.50;;
8159;SDS011;27404;52.398;9.646;2023-06-10T02:24:57;8.17;;;4.40;;
8159;SDS011;27404;52.398;9.646;2023-06-10T02:27:22;9.80;;;5.10;;
8159;SDS011;27404;52.398;9.646;2023-06-10T02:29:48;9.20;;;4.57;;
8159;SDS011;27404;52.398;9.646;2023-06-10T02:32:13;9.27;;;4.30;;
8159;SDS011;27404;52.398;9.646;2023-06-10T02:34:39;7.27;;;4.20;;
8159;SDS011;27404;52.398;9.646;2023-06-10T02:37:05;9.23;;;4.43;;
8159;SDS011;27404;52.398;9.646;2023-06-10T02:39:31;7.87;;;4.40;;
8159;SDS011;27404;52.398;9.646;2023-06-10T02:41:57;7.67;;;4.50;;
8159;SDS011;27404;52.398;9.646;2023-06-10T02:44:22;13.10;;;4.40;;
8159;SDS011;27404;52.398;9.646;2023-06-10T02:46:47;8.93;;;4.13;;
8159;SDS011;27404;52.398;9.646;2023-06-10T02:49:13;10.90;;;4.90;;
8159;SDS011;27404;52.398;9.646;2023-06-10T02:51:38;11.87;;;4.43;;
8159;SDS011;27404;52.398;9.646;2023-06-10T02:54:04;9.43;;;4.27;;
8159;SDS011;27404;52.398;9.646;2023-06-10T02:56:30;8.73;;;4.37;;
8159;SDS011;27404;52.398;9.646;2023-06-10T02:58:56;8.30;;;4.23;;
8159;SDS011;27404;52.398;9.646;2023-06-10T03:01:22;8.87;;;5.20;;
8159;SDS011;27404;52.398;9.646;2023-06-10T03:03:48;7.33;;;4.40;;
8159;SDS011;27404;52.398;9.646;2023-06-10T03:06:15;9.63;;;5.00;;
8159;SDS011;27404;52.398;9.646;2023-06-10T03:08:41;8.47;;;4.50;;
8159;SDS011;27404;52.398;9.646;2023-06-10T03:11:07;9.10;;;5.43;;
8159;SDS011;27404;52.398;9.646;2023-06-10T03:13:33;7.50;;;4.40;;
8159;SDS011;27404;52.398;9.646;2023-06-10T03:15:58;11.03;;;4.97;;
8159;SDS011;27404;52.398;9.646;2023-06-10T03:18:27;13.30;;;4.83;;
8159;SDS011;27404;52.398;9.646;2023-06-10T03:20:53;10.07;;;4.97;;
8159;SDS011;27404;52.398;9.646;2023-06-10T03:23:20;8.77;;;4.63;;
8159;SDS011;27404;52.398;9.646;2023-06-10T03:25:46;10.97;;;4.70;;
8159;SDS011;27404;52.398;9.646;2023-06-10T03:28:11;9.83;;;4.80;;
8159;SDS011;27404;52.398;9.646;2023-06-10T03:30:37;7.60;;;4.60;;
8159;SDS011;27404;52.398;9.646;2023-06-10T03:33:02;8.33;;;4.67;;
8159;SDS011;27404;52.398;9.646;2023-06-10T03:35:28;12.37;;;5.63;;
8159;SDS011;27404;52.398;9.646;2023-06-10T03:37:54;9.17;;;5.17;;
8159;SDS011;27404;52.398;9.646;2023-06-10T03:40:19;9.30;;;5.23;;
8159;SDS011;27404;52.398;9.646;2023-06-10T03:42:45;10.50;;;5.23;;
8159;SDS011;27404;52.398;9.646;2023-06-10T03:45:10;8.23;;;5.00;;
8159;SDS011;27404;52.398;9.646;2023-06-10T03:47:37;10.27;;;5.53;;
8159;SDS011;27404;52.398;9.646;2023-06-10T03:50:03;9.20;;;5.70;;
8159;SDS011;27404;52.398;9.646;2023-06-10T03:52:29;9.20;;;5.23;;
8159;SDS011;27404;52.398;9.646;2023-06-10T03:54:55;9.33;;;5.23;;
8159;SDS011;27404;52.398;9.646;2023-06-10T03:57:20;14.17;;;6.60;;
8159;SDS011;27404;52.398;9.646;2023-06-10T03:59:46;12.40;;;5.73;;
8159;SDS011;27404;52.398;9.646;2023-06-10T04:02:11;12.20;;;5.53;;
8159;SDS011;27404;52.398;9.646;2023-06-10T04:04:37;10.13;;;5.30;;
8159;SDS011;27404;52.398;9.646;2023-06-10T04:07:03;12.50;;;5.63;;
8159;SDS011;27404;52.398;9.646;2023-06-10T04:09:30;10.53;;;5.37;;
8159;SDS011;27404;52.398;9.646;2023-06-10T04:11:55;9.80;;;6.07;;
8159;SDS011;27404;52.398;9.646;2023-06-10T04:14:20;14.03;;;5.00;;
8159;SDS011;27404;52.398;9.646;2023-06-10T04:16:46;10.93;;;6.27;;
8159;SDS011;27404;52.398;9.646;2023-06-10T04:19:12;12.03;;;4.63;;
8159;SDS011;27404;52.398;9.646;2023-06-10T04:21:37;9.60;;;5.10;;
8159;SDS011;27404;52.398;9.646;2023-06-10T04:24:03;11.03;;;5.27;;
8159;SDS011;27404;52.398;9.646;2023-06-10T04:26:28;9.97;;;5.33;;
8159;SDS011;27404;52.398;9.646;2023-06-10T04:28:54;14.13;;;5.30;;
8159;SDS011;27404;52.398;9.646;2023-06-10T04:31:19;12.33;;;5.80;;
8159;SDS011;27404;52.398;9.646;2023-06-10T04:33:45;12.13;;;6.53;;
8159;SDS011;27404;52.398;9.646;2023-06-10T04:36:11;11.57;;;6.70;;
8159;SDS011;27404;52.398;9.646;2023-06-10T04:38:36;11.87;;;5.93;;
8159;SDS011;27404;52.398;9.646;2023-06-10T04:41:02;12.57;;;6.37;;
8159;SDS011;27404;52.398;9.646;2023-06-10T04:43:27;9.63;;;5.30;;
8159;SDS011;27404;52.398;9.646;2023-06-10T04:45:54;12.13;;;6.03;;
8159;SDS011;27404;52.398;9.646;2023-06-10T04:48:20;10.60;;;5.53;;
8159;SDS011;27404;52.398;9.646;2023-06-10T04:50:45;8.30;;;4.67;;
8159;SDS011;27404;52.398;9.646;2023-06-10T04:53:11;8.03;;;4.93;;
8159;SDS011;27404;52.398;9.646;2023-06-10T04:55:37;12.43;;;4.87;;
8159;SDS011;27404;52.398;9.646;2023-06-10T04:58:02;10.83;;;4.77;;
8159;SDS011;27404;52.398;9.646;2023-06-10T05:00:28;8.90;;;4.60;;
8159;SDS011;27404;52.398;9.646;2023-06-10T05:02:53;8.03;;;4.30;;
8159;SDS011;27404;52.398;9.646;2023-06-10T05:05:19;11.30;;;4.27;;
8159;SDS011;27404;52.398;9.646;2023-06-10T05:07:44;9.60;;;4.80;;
8159;SDS011;27404;52.398;9.646;2023-06-10T05:10:10;8.20;;;4.37;;
8159;SDS011;27404;52.398;9.646;2023-06-10T05:12:37;8.80;;;4.30;;
8159;SDS011;27404;52.398;9.646;2023-06-10T05:15:04;9.83;;;5.30;;
8159;SDS011;27404;52.398;9.646;2023-06-10T05:17:30;7.57;;;4.63;;
8159;SDS011;27404;52.398;9.646;2023-06-10T05:19:56;11.33;;;5.00;;
8159;SDS011;27404;52.398;9.646;2023-06-10T05:22:21;9.77;;;4.50;;
8159;SDS011;27404;52.398;9.646;2023-06-10T05:24:49;8.20;;;4.60;;
8159;SDS011;27404;52.398;9.646;2023-06-10T05:27:14;10.20;;;5.07;;
8159;SDS011;27404;52.398;9.646;2023-06-10T05:29:40;8.97;;;4.83;;
8159;SDS011;27404;52.398;9.646;2023-06-10T05:32:05;8.13;;;4.87;;
8159;SDS011;27404;52.398;9.646;2023-06-10T05:34:31;9.13;;;5.43;;
8159;SDS011;27404;52.398;9.646;2023-06-10T05:36:57;9.60;;;5.50;;
8159;SDS011;27404;52.398;9.646;2023-06-10T05:39:22;10.67;;;5.40;;
8159;SDS011;27404;52.398;9.646;2023-06-10T05:41:48;10.93;;;5.00;;
8159;SDS011;27404;52.398;9.646;2023-06-10T05:44:13;8.50;;;4.70;;
8159;SDS011;27404;52.398;9.646;2023-06-10T05:46:39;8.67;;;4.90;;
8159;SDS011;27404;52.398;9.646;2023-06-10T05:49:04;9.07;;;5.20;;
8159;SDS011;27404;52.398;9.646;2023-06-10T05:51:30;9.67;;;4.73;;
8159;SDS011;27404;52.398;9.646;2023-06-10T05:53:55;8.10;;;4.20;;
8159;SDS011;27404;52.398;9.646;2023-06-10T05:56:21;8.83;;;4.50;;
8159;SDS011;27404;52.398;9.646;2023-06-10T05:58:50;8.90;;;4.65;;
8159;SDS011;27404;52.398;9.646;2023-06-10T06:01:16;6.28;;;3.75;;
8159;SDS011;27404;52.398;9.646;2023-06-10T06:03:41;9.85;;;3.50;;
8159;SDS011;27404;52.398;9.646;2023-06-10T06:06:07;9.77;;;3.70;;
8159;SDS011;27404;52.398;9.646;2023-06-10T06:08:32;6.07;;;3.90;;
8159;SDS011;27404;52.398;9.646;2023-06-10T06:10:58;9.05;;;4.10;;
8159;SDS011;27404;52.398;9.646;2023-06-10T06:13:23;6.47;;;3.42;;
8159;SDS011;27404;52.398;9.646;2023-06-10T06:15:49;7.03;;;3.22;;
8159;SDS011;27404;52.398;9.646;2023-06-10T06:18:15;6.10;;;3.63;;
8159;SDS011;27404;52.398;9.646;2023-06-10T06:20:40;6.60;;;3.38;;
8159;SDS011;27404;52.398;9.646;2023-06-10T06:23:06;6.22;;;3.05;;
8159;SDS011;27404;52.398;9.646;2023-06-10T06:25:33;7.88;;;3.58;;
8159;SDS011;27404;52.398;9.646;2023-06-10T06:28:00;6.18;;;3.80;;
8159;SDS011;27404;52.398;9.646;2023-06-10T06:30:26;8.95;;;3.90;;
8159;SDS011;27404;52.398;9.646;2023-06-10T06:32:51;8.40;;;3.42;;
8159;SDS011;27404;52.398;9.646;2023-06-10T06:35:17;5.45;;;3.33;;
8159;SDS011;27404;52.398;9.646;2023-06-10T06:37:42;6.50;;;3.65;;
8159;SDS011;27404;52.398;9.646;2023-06-10T06:40:08;5.50;;;3.58;;
8159;SDS011;27404;52.398;9.646;2023-06-10T06:42:33;8.23;;;3.97;;
8159;SDS011;27404;52.398;9.646;2023-06-10T06:44:59;8.55;;;3.55;;
8159;SDS011;27404;52.398;9.646;2023-06-10T06:47:24;7.97;;;3.60;;
8159;SDS011;27404;52.398;9.646;2023-06-10T06:49:51;7.13;;;3.47;;
8159;SDS011;27404;52.398;9.646;2023-06-10T06:52:17;6.45;;;4.07;;
8159;SDS011;27404;52.398;9.646;2023-06-10T06:54:42;5.75;;;3.15;;
8159;SDS011;27404;52.398;9.646;2023-06-10T06:57:08;7.03;;;3.58;;
8159;SDS011;27404;52.398;9.646;2023-06-10T06:59:33;6.85;;;3.35;;
8159;SDS011;27404;52.398;9.646;2023-06-10T07:01:58;7.57;;;3.38;;
8159;SDS011;27404;52.398;9.646;2023-06-10T07:04:24;8.18;;;3.97;;
8159;SDS011;27404;52.398;9.646;2023-06-10T07:06:50;7.25;;;3.60;;
8159;SDS011;27404;52.398;9.646;2023-06-10T07:09:15;5.72;;;3.40;;
8159;SDS011;27404;52.398;9.646;2023-06-10T07:11:41;7.82;;;3.40;;
8159;SDS011;27404;52.398;9.646;2023-06-10T07:14:07;8.68;;;3.80;;
8159;SDS011;27404;52.398;9.646;2023-06-10T07:16:32;10.88;;;3.95;;
8159;SDS011;27404;52.398;9.646;2023-06-10T07:18:58;6.22;;;3.35;;
8159;SDS011;27404;52.398;9.646;2023-06-10T07:21:23;8.45;;;3.80;;
8159;SDS011;27404;52.398;9.646;2023-06-10T07:23:49;9.50;;;3.67;;
8159;SDS011;27404;52.398;9.646;2023-06-10T07:26:18;7.68;;;3.75;;
8159;SDS011;27404;52.398;9.646;2023-06-10T07:28:43;7.15;;;3.97;;
8159;SDS011;27404;52.398;9.646;2023-06-10T07:31:09;7.90;;;3.90;;
8159;SDS011;27404;52.398;9.646;2023-06-10T07:33:36;8.52;;;4.00;;
8159;SDS011;27404;52.398;9.646;2023-06-10T07:36:03;10.02;;;3.88;;
8159;SDS011;27404;52.398;9.646;2023-06-10T07:38:28;9.05;;;4.35;;
8159;SDS011;27404;52.398;9.646;2023-06-10T07:40:54;7.05;;;4.28;;
8159;SDS011;27404;52.398;9.646;2023-06-10T07:43:19;8.73;;;4.15;;
8159;SDS011;27404;52.398;9.646;2023-06-10T07:45:44;9.30;;;3.88;;
8159;SDS011;27404;52.398;9.646;2023-06-10T07:48:10;9.45;;;4.60;;
8159;SDS011;27404;52.398;9.646;2023-06-10T07:50:36;9.55;;;4.57;;
8159;SDS011;27404;52.398;9.646;2023-06-10T07:53:01;11.63;;;4.63;;
8159;SDS011;27404;52.398;9.646;2023-06-10T07:55:27;10.90;;;4.65;;
8159;SDS011;27404;52.398;9.646;2023-06-10T07:57:53;9.35;;;4.72;;
8159;SDS011;27404;52.398;9.646;2023-06-10T08:00:19;10.90;;;4.47;;
8159;SDS011;27404;52.398;9.646;2023-06-10T08:02:45;9.15;;;4.40;;
8159;SDS011;27404;52.398;9.646;2023-06-10T08:05:11;8.50;;;4.88;;
8159;SDS011;27404;52.398;9.646;2023-06-10T08:07:37;11.23;;;4.47;;
8159;SDS011;27404;52.398;9.646;2023-06-10T08:10:02;9.10;;;4.20;;
8159;SDS011;27404;52.398;9.646;2023-06-10T08:12:29;8.80;;;4.80;;
8159;SDS011;27404;52.398;9.646;2023-06-10T08:14:55;10.20;;;4.97;;
8159;SDS011;27404;52.398;9.646;2023-06-10T08:17:20;9.77;;;4.90;;
8159;SDS011;27404;52.398;9.646;2023-06-10T08:19:46;12.52;;;4.65;;
8159;SDS011;27404;52.398;9.646;2023-06-10T08:22:11;7.55;;;4.75;;
8159;SDS011;27404;52.398;9.646;2023-06-10T08:24:37;8.13;;;5.00;;
8159;SDS011;27404;52.398;9.646;2023-06-10T08:27:02;7.43;;;4.90;;
8159;SDS011;27404;52.398;9.646;2023-06-10T08:29:28;11.80;;;5.32;;
8159;SDS011;27404;52.398;9.646;2023-06-10T08:31:56;6.43;;;3.97;;
8159;SDS011;27404;52.398;9.646;2023-06-10T08:34:21;9.90;;;5.03;;
8159;SDS011;27404;52.398;9.646;2023-06-10T08:36:47;7.55;;;4.63;;
8159;SDS011;27404;52.398;9.646;2023-06-10T08:39:12;9.27;;;4.85;;
8159;SDS011;27404;52.398;9.646;2023-06-10T08:41:41;9.03;;;4.17;;
8159;SDS011;27404;52.398;9.646;2023-06-10T08:44:22;12.63;;;4.55;;
8159;SDS011;27404;52.398;9.646;2023-06-10T08:46:53;7.72;;;4.30;;
8159;SDS011;27404;52.398;9.646;2023-06-10T08:49:23;9.43;;;5.03;;
8159;SDS011;27404;52.398;9.646;2023-06-10T08:51:51;8.05;;;4.43;;
8159;SDS011;27404;52.398;9.646;2023-06-10T08:54:25;5.63;;;3.88;;
8159;SDS011;27404;52.398;9.646;2023-06-10T08:56:54;6.00;;;3.83;;
8159;SDS011;27404;52.398;9.646;2023-06-10T08:59:22;8.05;;;4.07;;
8159;SDS011;27404;52.398;9.646;2023-06-10T09:01:50;9.57;;;4.40;;
8159;SDS011;27404;52.398;9.646;2023-06-10T09:04:16;8.45;;;4.50;;
8159;SDS011;27404;52.398;9.646;2023-06-10T09:06:43;8.00;;;3.75;;
8159;SDS011;27404;52.398;9.646;2023-06-10T09:09:09;7.82;;;4.63;;
8159;SDS011;27404;52.398;9.646;2023-06-10T09:11:35;7.03;;;3.90;;
8159;SDS011;27404;52.398;9.646;2023-06-10T09:14:03;8.93;;;3.70;;
8159;SDS011;27404;52.398;9.646;2023-06-10T09:16:28;9.00;;;3.95;;
8159;SDS011;27404;52.398;9.646;2023-06-10T09:18:54;8.70;;;4.25;;
8159;SDS011;27404;52.398;9.646;2023-06-10T09:21:23;7.05;;;4.18;;
8159;SDS011;27404;52.398;9.646;2023-06-10T09:23:49;8.70;;;3.80;;
8159;SDS011;27404;52.398;9.646;2023-06-10T09:26:15;6.97;;;3.75;;
8159;SDS011;27404;52.398;9.646;2023-06-10T09:28:44;10.40;;;4.03;;
8159;SDS011;27404;52.398;9.646;2023-06-10T09:31:12;8.70;;;3.97;;
8159;SDS011;27404;52.398;9.646;2023-06-10T09:33:39;8.00;;;4.10;;
8159;SDS011;27404;52.398;9.646;2023-06-10T09:36:05;8.10;;;3.70;;
8159;SDS011;27404;52.398;9.646;2023-06-10T09:38:31;7.68;;;4.15;;
8159;SDS011;27404;52.398;9.646;2023-06-10T09:40:58;5.05;;;3.40;;
8159;SDS011;27404;52.398;9.646;2023-06-10T09:43:45;5.47;;;3.20;;
8159;SDS011;27404;52.398;9.646;2023-06-10T09:46:18;6.78;;;3.90;;
8159;SDS011;27404;52.398;9.646;2023-06-10T09:48:45;7.00;;;3.60;;
8159;SDS011;27404;52.398;9.646;2023-06-10T09:51:13;7.75;;;3.63;;
8159;SDS011;27404;52.398;9.646;2023-06-10T09:53:40;7.72;;;3.58;;
8159;SDS011;27404;52.398;9.646;2023-06-10T09:56:05;6.88;;;3.60;;
8159;SDS011;27404;52.398;9.646;2023-06-10T09:58:35;7.22;;;3.90;;
8159;SDS011;27404;52.398;9.646;2023-06-10T10:01:08;11.90;;;3.92;;
8159;SDS011;27404;52.398;9.646;2023-06-10T10:03:49;5.22;;;3.50;;
8159;SDS011;27404;52.398;9.646;2023-06-10T10:06:16;8.75;;;4.30;;
8159;SDS011;27404;52.398;9.646;2023-06-10T10:08:43;5.63;;;3.88;;
8159;SDS011;27404;52.398;9.646;2023-06-10T10:11:13;6.30;;;3.78;;
8159;SDS011;27404;52.398;9.646;2023-06-10T10:13:41;8.00;;;3.45;;
8159;SDS011;27404;52.398;9.646;2023-06-10T10:16:11;7.80;;;3.90;;
8159;SDS011;27404;52.398;9.646;2023-06-10T10:18:41;5.85;;;3.60;;
8159;SDS011;27404;52.398;9.646;2023-06-10T10:21:13;10.02;;;3.85;;
8159;SDS011;27404;52.398;9.646;2023-06-10T10:26:22;6.63;;;3.70;;
8159;SDS011;27404;52.398;9.646;2023-06-10T10:28:53;8.00;;;3.80;;
8159;SDS011;27404;52.398;9.646;2023-06-10T10:31:41;4.88;;;3.47;;
8159;SDS011;27404;52.398;9.646;2023-06-10T10:34:15;6.50;;;3.40;;
8159;SDS011;27404;52.398;9.646;2023-06-10T10:36:42;10.70;;;3.90;;
8159;SDS011;27404;52.398;9.646;2023-06-10T10:39:08;5.40;;;3.50;;
8159;SDS011;27404;52.398;9.646;2023-06-10T10:41:34;8.13;;;3.95;;
8159;SDS011;27404;52.398;9.646;2023-06-10T10:44:03;12.52;;;3.78;;
8159;SDS011;27404;52.398;9.646;2023-06-10T10:46:41;5.00;;;3.70;;
8159;SDS011;27404;52.398;9.646;2023-06-10T10:49:08;5.00;;;3.70;;
8159;SDS011;27404;52.398;9.646;2023-06-10T10:51:35;5.35;;;3.60;;
8159;SDS011;27404;52.398;9.646;2023-06-10T10:54:14;7.05;;;3.90;;
8159;SDS011;27404;52.398;9.646;2023-06-10T10:57:09;7.80;;;3.78;;
8159;SDS011;27404;52.398;9.646;2023-06-10T10:59:46;12.32;;;3.67;;
8159;SDS011;27404;52.398;9.646;2023-06-10T11:04:46;8.88;;;4.22;;
8159;SDS011;27404;52.398;9.646;2023-06-10T11:07:12;7.43;;;4.18;;
8159;SDS011;27404;52.398;9.646;2023-06-10T11:09:57;5.70;;;3.63;;
8159;SDS011;27404;52.398;9.646;2023-06-10T11:15:29;5.38;;;4.28;;
8159;SDS011;27404;52.398;9.646;2023-06-10T11:18:10;8.55;;;3.90;;
8159;SDS011;27404;52.398;9.646;2023-06-10T11:20:57;13.70;;;4.55;;
8159;SDS011;27404;52.398;9.646;2023-06-10T11:23:33;10.23;;;4.35;;
8159;SDS011;27404;52.398;9.646;2023-06-10T11:26:16;8.15;;;4.30;;
8159;SDS011;27404;52.398;9.646;2023-06-10T11:31:20;5.95;;;4.32;;
8159;SDS011;27404;52.398;9.646;2023-06-10T11:33:53;5.47;;;4.10;;
8159;SDS011;27404;52.398;9.646;2023-06-10T11:36:23;6.53;;;4.22;;
8159;SDS011;27404;52.398;9.646;2023-06-10T11:38:53;7.95;;;4.53;;
8159;SDS011;27404;52.398;9.646;2023-06-10T11:41:26;8.27;;;4.00;;
8159;SDS011;27404;52.398;9.646;2023-06-10T11:43:54;6.55;;;4.90;;
8159;SDS011;27404;52.398;9.646;2023-06-10T11:46:23;9.50;;;4.53;;
8159;SDS011;27404;52.398;9.646;2023-06-10T11:48:52;7.93;;;4.22;;
8159;SDS011;27404;52.398;9.646;2023-06-10T11:51:18;9.18;;;4.90;;
8159;SDS011;27404;52.398;9.646;2023-06-10T11:53:45;7.55;;;4.10;;
8159;SDS011;27404;52.398;9.646;2023-06-10T11:56:11;8.27;;;4.75;;
8159;SDS011;27404;52.398;9.646;2023-06-10T11:58:36;10.77;;;5.38;;
8159;SDS011;27404;52.398;9.646;2023-06-10T12:01:02;7.28;;;4.47;;
8159;SDS011;27404;52.398;9.646;2023-06-10T12:03:35;8.02;;;4.82;;
8159;SDS011;27404;52.398;9.646;2023-06-10T12:06:02;6.22;;;5.10;;
8159;SDS011;27404;52.398;9.646;2023-06-10T12:08:29;6.55;;;4.80;;
8159;SDS011;27404;52.398;9.646;2023-06-10T12:10:55;7.22;;;4.82;;
8159;SDS011;27404;52.398;9.646;2023-06-10T12:13:22;8.35;;;4.70;;
8159;SDS011;27404;52.398;9.646;2023-06-10T12:15:51;6.90;;;4.63;;
8159;SDS011;27404;52.398;9.646;2023-06-10T12:18:20;8.90;;;5.07;;
8159;SDS011;27404;52.398;9.646;2023-06-10T12:20:47;6.72;;;4.88;;
8159;SDS011;27404;52.398;9.646;2023-06-10T12:23:13;9.13;;;5.25;;
8159;SDS011;27404;52.398;9.646;2023-06-10T12:25:39;8.10;;;5.40;;
8159;SDS011;27404;52.398;9.646;2023-06-10T12:28:25;8.18;;;5.05;;
8159;SDS011;27404;52.398;9.646;2023-06-10T12:30:51;10.43;;;5.78;;
8159;SDS011;27404;52.398;9.646;2023-06-10T12:33:21;9.38;;;5.32;;
8159;SDS011;27404;52.398;9.646;2023-06-10T12:35:47;13.45;;;5.13;;
8159;SDS011;27404;52.398;9.646;2023-06-10T12:38:14;9.32;;;5.10;;
8159;SDS011;27404;52.398;9.646;2023-06-10T12:40:40;7.80;;;4.80;;
8159;SDS011;27404;52.398;9.646;2023-06-10T12:43:06;7.88;;;5.30;;
8159;SDS011;27404;52.398;9.646;2023-06-10T12:45:32;7.90;;;5.03;;
8159;SDS011;27404;52.398;9.646;2023-06-10T12:48:05;13.27;;;5.20;;
8159;SDS011;27404;52.398;9.646;2023-06-10T12:50:34;7.45;;;5.28;;
8159;SDS011;27404;52.398;9.646;2023-06-10T12:53:03;7.18;;;5.07;;
8159;SDS011;27404;52.398;9.646;2023-06-10T12:55:28;9.43;;;5.72;;
8159;SDS011;27404;52.398;9.646;2023-06-10T12:57:54;6.78;;;5.35;;
8159;SDS011;27404;52.398;9.646;2023-06-10T13:00:21;6.57;;;5.50;;
8159;SDS011;27404;52.398;9.646;2023-06-10T13:02:48;9.30;;;5.00;;
8159;SDS011;27404;52.398;9.646;2023-06-10T13:05:15;13.70;;;5.57;;
8159;SDS011;27404;52.398;9.646;2023-06-10T13:07:41;8.70;;;5.35;;
8159;SDS011;27404;52.398;9.646;2023-06-10T13:10:07;9.15;;;5.28;;
8159;SDS011;27404;52.398;9.646;2023-06-10T13:12:33;8.35;;;5.55;;
8159;SDS011;27404;52.398;9.646;2023-06-10T13:14:58;8.52;;;5.18;;
8159;SDS011;27404;52.398;9.646;2023-06-10T13:17:23;5.43;;;4.88;;
8159;SDS011;27404;52.398;9.646;2023-06-10T13:19:49;11.00;;;5.30;;
8159;SDS011;27404;52.398;9.646;2023-06-10T13:22:15;7.90;;;5.43;;
8159;SDS011;27404;52.398;9.646;2023-06-10T13:24:40;6.43;;;5.30;;
8159;SDS011;27404;52.398;9.646;2023-06-10T13:27:08;7.90;;;5.85;;
8159;SDS011;27404;52.398;9.646;2023-06-10T13:29:34;7.50;;;5.13;;
8159;SDS011;27404;52.398;9.646;2023-06-10T13:31:59;12.45;;;5.60;;
8159;SDS011;27404;52.398;9.646;2023-06-10T13:34:25;7.15;;;5.30;;
8159;SDS011;27404;52.398;9.646;2023-06-10T13:36:50;9.10;;;5.07;;
8159;SDS011;27404;52.398;9.646;2023-06-10T13:39:16;11.93;;;5.28;;
8159;SDS011;27404;52.398;9.646;2023-06-10T13:41:41;9.32;;;5.60;;
8159;SDS011;27404;52.398;9.646;2023-06-10T13:44:07;6.38;;;5.25;;
8159;SDS011;27404;52.398;9.646;2023-06-10T13:46:32;7.55;;;5.38;;
8159;SDS011;27404;52.398;9.646;2023-06-10T13:48:58;6.03;;;4.93;;
8159;SDS011;27404;52.398;9.646;2023-06-10T13:51:23;6.82;;;5.35;;
8159;SDS011;27404;52.398;9.646;2023-06-10T13:53:49;8.38;;;5.13;;
8159;SDS011;27404;52.398;9.646;2023-06-10T13:56:17;7.97;;;4.95;;
8159;SDS011;27404;52.398;9.646;2023-06-10T13:58:43;7.32;;;5.43;;
8159;SDS011;27404;52.398;9.646;2023-06-10T14:01:08;10.40;;;5.50;;
8159;SDS011;27404;52.398;9.646;2023-06-10T14:03:34;8.80;;;5.40;;
8159;SDS011;27404;52.398;9.646;2023-06-10T14:05:59;10.32;;;5.40;;
8159;SDS011;27404;52.398;9.646;2023-06-10T14:08:25;7.78;;;5.30;;
8159;SDS011;27404;52.398;9.646;2023-06-10T14:10:50;7.30;;;4.90;;
8159;SDS011;27404;52.398;9.646;2023-06-10T14:13:16;7.95;;;5.03;;
8159;SDS011;27404;52.398;9.646;2023-06-10T14:15:42;6.75;;;4.88;;
8159;SDS011;27404;52.398;9.646;2023-06-10T14:18:08;7.47;;;4.90;;
8159;SDS011;27404;52.398;9.646;2023-06-10T14:20:33;9.15;;;5.20;;
8159;SDS011;27404;52.398;9.646;2023-06-10T14:22:58;6.55;;;4.97;;
8159;SDS011;27404;52.398;9.646;2023-06-10T14:25:24;7.57;;;4.57;;
8159;SDS011;27404;52.398;9.646;2023-06-10T14:27:50;8.80;;;4.93;;
8159;SDS011;27404;52.398;9.646;2023-06-10T14:30:15;7.68;;;5.32;;
8159;SDS011;27404;52.398;9.646;2023-06-10T14:32:41;5.22;;;4.72;;
8159;SDS011;27404;52.398;9.646;2023-06-10T14:35:07;7.30;;;4.80;;
8159;SDS011;27404;52.398;9.646;2023-06-10T14:37:33;7.97;;;5.32;;
8159;SDS011;27404;52.398;9.646;2023-06-10T14:39:58;6.35;;;5.15;;
8159;SDS011;27404;52.398;9.646;2023-06-10T14:42:24;6.25;;;5.07;;
8159;SDS011;27404;52.398;9.646;2023-06-10T14:44:49;7.40;;;5.00;;
8159;SDS011;27404;52.398;9.646;2023-06-10T14:47:15;7.25;;;4.80;;
8159;SDS011;27404;52.398;9.646;2023-06-10T14:49:41;6.20;;;4.88;;
8159;SDS011;27404;52.398;9.646;2023-06-10T14:52:07;6.88;;;4.65;;
8159;SDS011;27404;52.398;9.646;2023-06-10T14:54:33;8.38;;;4.72;;
8159;SDS011;27404;52.398;9.646;2023-06-10T14:56:59;6.22;;;5.25;;
8159;SDS011;27404;52.398;9.646;2023-06-10T14:59:24;7.53;;;5.28;;
8159;SDS011;27404;52.398;9.646;2023-06-10T15:01:50;7.25;;;5.10;;
8159;SDS011;27404;52.398;9.646;2023-06-10T15:04:15;5.40;;;4.50;;
8159;SDS011;27404;52.398;9.646;2023-06-10T15:06:41;8.40;;;5.18;;
8159;SDS011;27404;52.398;9.646;2023-06-10T15:09:07;6.90;;;4.45;;
8159;SDS011;27404;52.398;9.646;2023-06-10T15:11:33;10.05;;;5.10;;
8159;SDS011;27404;52.398;9.646;2023-06-10T15:13:58;6.22;;;4.72;;